createdAt,value
2018-11-20T00:00:15.454Z,8.17
2018-11-20T00:03:02.009Z,8.93
2018-11-20T00:05:58.696Z,8.10
2018-11-20T00:08:49.188Z,8.63
2018-11-20T00:11:34.957Z,7.70
2018-11-20T00:14:21.404Z,7.80
2018-11-20T00:17:00.390Z,8.43
2018-11-20T00:19:46.540Z,7.93
2018-11-20T00:22:46.224Z,8.67
2018-11-20T00:25:36.613Z,8.50
2018-11-20T00:28:13.277Z,7.80
2018-11-20T00:30:57.702Z,7.90
2018-11-20T00:33:43.966Z,8.23
2018-11-20T00:36:30.220Z,8.50
2018-11-20T00:39:10.067Z,8.03
2018-11-20T00:41:48.900Z,8.80
2018-11-20T00:44:35.189Z,8.30
2018-11-20T00:47:21.572Z,8.43
2018-11-20T00:50:07.798Z,8.53
2018-11-20T00:52:59.837Z,8.30
2018-11-20T00:56:05.327Z,8.00
2018-11-20T00:59:04.812Z,8.00
2018-11-20T01:01:55.467Z,8.70
2018-11-20T01:04:46.127Z,8.30
2018-11-20T01:07:35.199Z,7.97
2018-11-20T01:10:21.653Z,8.23
2018-11-20T01:13:17.905Z,9.00
2018-11-20T01:16:04.279Z,9.13
2018-11-20T01:19:03.860Z,8.90
2018-11-20T01:21:50.630Z,9.10
2018-11-20T01:24:41.092Z,9.23
2018-11-20T01:27:27.195Z,8.73
2018-11-20T01:30:13.671Z,9.73
2018-11-20T01:33:01.386Z,10.30
2018-11-20T01:35:58.189Z,10.40
2018-11-20T01:38:45.922Z,9.50
2018-11-20T01:41:33.807Z,10.37
2018-11-20T01:44:24.561Z,10.00
2018-11-20T01:47:11.275Z,11.10
2018-11-20T01:49:53.240Z,10.20
2018-11-20T01:52:39.913Z,10.23
2018-11-20T01:55:30.547Z,11.90
2018-11-20T01:58:18.264Z,9.97
2018-11-20T02:01:15.000Z,10.93
2018-11-20T02:04:07.095Z,10.60
2018-11-20T02:06:53.813Z,11.43
2018-11-20T02:09:44.232Z,11.07
2018-11-20T02:12:31.964Z,10.60
2018-11-20T02:15:18.399Z,10.80
2018-11-20T02:18:23.420Z,10.87
2018-11-20T02:21:12.772Z,10.90
2018-11-20T02:24:00.512Z,10.77
2018-11-20T02:26:46.725Z,11.20
2018-11-20T02:29:32.857Z,11.57
2018-11-20T02:32:20.754Z,11.03
2018-11-20T02:35:06.747Z,10.47
2018-11-20T02:38:03.539Z,11.60
2018-11-20T02:40:49.748Z,12.33
2018-11-20T02:43:30.846Z,12.03
2018-11-20T02:46:18.571Z,12.43
2018-11-20T02:49:05.176Z,12.63
2018-11-20T02:52:01.654Z,13.23
2018-11-20T02:54:49.375Z,14.33
2018-11-20T02:57:32.995Z,14.77
2018-11-20T03:00:29.509Z,14.50
2018-11-20T03:03:08.284Z,15.23
2018-11-20T03:06:01.690Z,14.13
2018-11-20T03:08:48.070Z,14.93
2018-11-20T03:11:38.411Z,14.93
2018-11-20T03:14:32.892Z,15.63
2018-11-20T03:17:26.378Z,15.17
2018-11-20T03:20:23.127Z,15.17
2018-11-20T03:23:19.566Z,14.90
2018-11-20T03:26:13.397Z,14.23
2018-11-20T03:29:24.630Z,15.83
2018-11-20T03:32:12.343Z,15.73
2018-11-20T03:35:02.699Z,15.20
2018-11-20T03:37:43.805Z,15.57
2018-11-20T03:40:40.778Z,15.20
2018-11-20T03:43:27.172Z,15.27
2018-11-20T03:46:20.819Z,16.27
2018-11-20T03:49:22.884Z,15.17
2018-11-20T03:52:12.994Z,14.77
2018-11-20T03:55:03.591Z,15.70
2018-11-20T03:58:03.440Z,15.67
2018-11-20T04:01:06.362Z,14.93
2018-11-20T04:03:59.968Z,15.30
2018-11-20T04:06:53.671Z,14.80
2018-11-20T04:09:37.275Z,15.60
2018-11-20T04:12:40.002Z,14.07
2018-11-20T04:15:29.360Z,14.97
2018-11-20T04:18:19.722Z,14.70
2018-11-20T04:21:50.282Z,14.57
2018-11-20T04:24:42.614Z,14.53
2018-11-20T04:27:19.075Z,14.67
2018-11-20T04:30:06.548Z,15.00
2018-11-20T04:32:53.692Z,14.33
2018-11-20T04:38:12.100Z,14.90
2018-11-20T04:41:16.624Z,14.90
2018-11-20T04:46:57.590Z,13.83
2018-11-20T04:49:36.453Z,14.70
2018-11-20T04:52:28.496Z,14.30
2018-11-20T04:57:49.469Z,13.47
2018-11-20T05:06:07.496Z,13.80
2018-11-20T05:14:25.730Z,14.47
2018-11-20T05:17:12.709Z,14.80
2018-11-20T05:25:37.032Z,15.03
2018-11-20T05:28:15.786Z,14.93
2018-11-20T05:36:53.720Z,15.27
2018-11-20T06:09:50.062Z,14.53
2018-11-20T06:12:30.184Z,15.20
2018-11-20T06:26:40.677Z,15.80
2018-11-20T06:31:59.184Z,15.67
2018-11-20T06:34:58.898Z,14.53
2018-11-20T06:48:35.694Z,15.30
2018-11-20T06:57:21.283Z,15.80
2018-11-20T07:05:40.312Z,16.03
2018-11-20T07:08:40.127Z,15.23
2018-11-20T07:13:58.646Z,15.73
2018-11-20T07:16:58.283Z,15.97
2018-11-20T07:22:16.905Z,16.00
2018-11-20T07:25:18.313Z,16.70
2018-11-20T07:39:00.296Z,16.33
2018-11-20T07:47:24.390Z,16.00
2018-11-20T07:53:15.449Z,17.00
2018-11-20T07:56:15.251Z,17.07
2018-11-20T08:04:36.077Z,16.63
2018-11-20T08:09:54.523Z,16.47
2018-11-20T08:18:34.988Z,16.67
2018-11-20T08:21:13.709Z,17.27
2018-11-20T08:26:51.227Z,17.57
2018-11-20T08:35:45.089Z,17.47
2018-11-20T08:41:24.737Z,16.87
2018-11-20T08:44:03.559Z,18.47
2018-11-20T08:46:49.141Z,18.73
2018-11-20T09:00:26.958Z,20.27
2018-11-20T09:03:26.942Z,19.37
2018-11-20T09:22:35.346Z,20.73
2018-11-20T09:30:41.799Z,22.40
2018-11-20T09:38:49.873Z,21.30
2018-11-20T09:41:54.261Z,22.47
2018-11-20T09:47:13.292Z,21.90
2018-11-20T09:55:23.817Z,22.17
2018-11-20T10:06:46.567Z,23.07
2018-11-20T10:12:25.522Z,22.33
2018-11-20T10:15:05.446Z,23.87
2018-11-20T10:17:44.136Z,22.93
2018-11-20T10:26:01.025Z,24.60
2018-11-20T10:34:21.983Z,23.80
2018-11-20T10:37:05.742Z,24.87
2018-11-20T10:39:51.655Z,24.70
2018-11-20T10:42:30.027Z,23.77
2018-11-20T10:45:26.975Z,23.83
2018-11-20T10:48:12.641Z,24.47
2018-11-20T10:50:58.552Z,23.23
2018-11-20T10:53:45.814Z,24.40
2018-11-20T10:56:42.462Z,24.77
2018-11-20T10:59:47.796Z,22.93
2018-11-20T11:02:33.896Z,24.17
2018-11-20T11:05:19.921Z,24.47
2018-11-20T11:08:06.143Z,24.37
2018-11-20T11:10:53.422Z,23.20
2018-11-20T11:13:43.495Z,24.17
2018-11-20T11:16:49.021Z,22.50
2018-11-20T11:19:36.333Z,23.70
2018-11-20T11:22:23.680Z,23.47
2018-11-20T11:25:05.246Z,23.10
2018-11-20T11:27:51.388Z,23.80
2018-11-20T11:30:50.809Z,25.00
2018-11-20T11:33:38.151Z,24.53
2018-11-20T11:36:34.467Z,24.50
2018-11-20T11:39:20.787Z,23.43
2018-11-20T11:42:06.843Z,21.90
2018-11-20T11:45:06.045Z,23.73
2018-11-20T11:47:51.834Z,24.43
2018-11-20T11:50:36.346Z,23.93
2018-11-20T11:53:22.819Z,24.33
2018-11-20T11:56:18.975Z,22.57
2018-11-20T11:59:18.250Z,23.40
2018-11-20T12:04:59.397Z,23.33
2018-11-20T12:07:48.234Z,22.83
2018-11-20T12:10:36.401Z,22.53
2018-11-20T12:13:20.852Z,21.97
2018-11-20T12:16:06.721Z,22.97
2018-11-20T12:19:12.231Z,22.03
2018-11-20T12:22:06.052Z,21.73
2018-11-20T12:24:59.463Z,22.83
2018-11-20T12:27:45.613Z,23.17
2018-11-20T12:30:45.318Z,21.17
2018-11-20T12:33:35.614Z,23.27
2018-11-20T12:36:21.707Z,23.30
2018-11-20T12:39:07.681Z,22.60
2018-11-20T12:41:48.791Z,22.50
2018-11-20T12:44:38.976Z,21.47
2018-11-20T12:47:31.982Z,22.60
2018-11-20T12:50:26.215Z,23.10
2018-11-20T12:53:24.655Z,22.87
2018-11-20T12:56:11.051Z,23.50
2018-11-20T12:59:10.290Z,23.37
2018-11-20T13:01:57.609Z,22.83
2018-11-20T13:04:44.162Z,23.80
2018-11-20T13:07:34.424Z,22.80
2018-11-20T13:10:30.472Z,22.50
2018-11-20T13:13:18.057Z,22.90
2018-11-20T13:16:02.342Z,22.17
2018-11-20T13:18:44.112Z,22.33
2018-11-20T13:21:31.421Z,22.63
2018-11-20T13:24:24.823Z,22.80
2018-11-20T13:27:12.136Z,22.67
2018-11-20T13:30:00.992Z,23.00
2018-11-20T13:32:42.911Z,21.80
2018-11-20T13:35:25.239Z,21.70
2018-11-20T13:38:15.366Z,23.03
2018-11-20T13:41:20.356Z,21.97
2018-11-20T13:44:13.540Z,21.87
2018-11-20T13:46:59.673Z,22.53
2018-11-20T13:49:45.368Z,21.60
2018-11-20T13:52:24.791Z,21.13
2018-11-20T13:55:11.929Z,22.17
2018-11-20T13:58:02.259Z,22.27
2018-11-20T14:00:48.326Z,21.30
2018-11-20T14:03:29.910Z,22.43
2018-11-20T14:06:20.404Z,22.03
2018-11-20T14:09:16.629Z,22.60
2018-11-20T14:12:06.488Z,21.70
2018-11-20T14:14:52.767Z,22.27
2018-11-20T14:17:46.550Z,21.70
2018-11-20T14:20:46.257Z,21.57
2018-11-20T14:23:31.992Z,23.10
2018-11-20T14:26:19.368Z,22.07
2018-11-20T14:29:15.808Z,21.57
2018-11-20T14:32:02.015Z,21.77
2018-11-20T14:34:42.381Z,21.80
2018-11-20T14:37:28.640Z,23.40
2018-11-20T14:40:14.721Z,22.57
2018-11-20T14:43:00.825Z,22.13
2018-11-20T14:45:48.138Z,21.70
2018-11-20T14:48:34.237Z,24.40
2018-11-20T14:51:21.552Z,21.53
2018-11-20T14:54:07.990Z,23.83
2018-11-20T14:56:55.300Z,23.20
2018-11-20T14:59:51.231Z,22.60
2018-11-20T15:02:36.978Z,21.97
2018-11-20T15:05:23.794Z,22.87
2018-11-20T15:08:11.102Z,23.37
2018-11-20T15:10:58.772Z,24.77
2018-11-20T15:13:38.480Z,24.43
2018-11-20T15:16:21.962Z,24.07
2018-11-20T15:19:08.022Z,23.93
2018-11-20T15:21:55.376Z,24.13
2018-11-20T15:24:38.556Z,22.80
2018-11-20T15:27:17.114Z,24.67
2018-11-20T15:30:00.922Z,23.27
2018-11-20T15:32:47.010Z,23.23
2018-11-20T15:35:37.006Z,24.10
2018-11-20T15:38:27.231Z,23.53
2018-11-20T15:41:20.666Z,24.70
2018-11-20T15:44:06.824Z,25.77
2018-11-20T15:47:12.137Z,24.03
2018-11-20T15:49:51.342Z,23.70
2018-11-20T15:52:34.291Z,25.83
2018-11-20T15:55:20.046Z,24.63
2018-11-20T15:58:19.712Z,24.90
2018-11-20T16:01:05.986Z,24.17
2018-11-20T16:04:02.418Z,23.40
2018-11-20T16:07:01.546Z,25.57
2018-11-20T16:09:41.460Z,24.33
2018-11-20T16:12:34.853Z,26.37
2018-11-20T16:15:20.190Z,25.80
2018-11-20T16:18:10.385Z,25.73
2018-11-20T16:21:04.665Z,25.73
2018-11-20T16:24:01.111Z,26.07
2018-11-20T16:26:41.458Z,27.60
2018-11-20T16:29:40.945Z,25.37
2018-11-20T16:32:26.739Z,25.73
2018-11-20T16:35:12.829Z,26.70
2018-11-20T16:38:13.166Z,27.13
2018-11-20T16:40:59.407Z,27.13
2018-11-20T16:43:52.671Z,26.83
2018-11-20T16:46:35.225Z,26.80
2018-11-20T16:49:21.415Z,26.57
2018-11-20T16:52:24.065Z,26.60
2018-11-20T16:55:26.489Z,27.17
2018-11-20T16:58:32.139Z,26.60
2018-11-20T17:01:28.295Z,27.13
2018-11-20T17:04:29.851Z,27.13
2018-11-20T17:12:29.534Z,25.97
2018-11-20T17:17:56.947Z,26.83
2018-11-20T17:23:15.746Z,27.73
2018-11-20T17:26:15.503Z,26.97
2018-11-20T17:31:34.324Z,26.83
2018-11-20T17:34:34.217Z,25.07
2018-11-20T17:40:11.935Z,26.17
2018-11-20T17:57:32.333Z,25.83
2018-11-20T18:02:51.216Z,26.33
2018-11-20T18:05:50.950Z,26.57
2018-11-20T18:08:29.749Z,26.17
2018-11-20T18:11:19.650Z,26.73
2018-11-20T18:17:00.497Z,25.80
2018-11-20T18:22:39.341Z,25.13
2018-11-20T18:27:57.938Z,25.17
2018-11-20T18:36:30.074Z,26.07
2018-11-20T18:44:50.992Z,25.37
2018-11-20T18:47:29.395Z,25.57
2018-11-20T18:58:54.182Z,25.77
2018-11-20T19:01:32.421Z,23.47
2018-11-20T19:16:03.911Z,24.37
2018-11-20T19:21:54.877Z,24.10
2018-11-20T19:30:12.822Z,24.37
2018-11-20T19:35:50.777Z,23.23
2018-11-20T19:38:30.648Z,24.07
2018-11-20T19:43:49.185Z,23.90
2018-11-20T19:46:50.724Z,24.13
2018-11-20T19:52:29.442Z,24.37
2018-11-20T19:57:48.302Z,23.13
2018-11-20T20:00:47.696Z,23.33
2018-11-20T20:06:28.483Z,21.70
2018-11-20T20:14:49.579Z,24.13
2018-11-20T20:20:08.581Z,22.40
2018-11-20T20:25:50.755Z,21.77
2018-11-20T20:34:07.249Z,22.67
2018-11-20T20:42:48.083Z,22.97
2018-11-20T20:51:05.521Z,24.07
2018-11-20T20:54:05.124Z,23.33
2018-11-20T20:56:43.771Z,23.30
2018-11-20T21:05:20.831Z,23.13
2018-11-20T21:11:01.561Z,24.10
2018-11-20T21:14:02.983Z,23.10
2018-11-20T21:19:34.267Z,23.97
2018-11-20T21:24:53.049Z,22.60
2018-11-20T21:27:54.253Z,24.20
2018-11-20T21:33:13.041Z,23.57
2018-11-20T21:44:32.898Z,24.13
2018-11-20T21:49:51.530Z,23.47
2018-11-20T21:52:51.247Z,23.70
2018-11-20T21:58:30.212Z,24.37
2018-11-20T22:01:31.858Z,24.30
2018-11-20T22:04:10.772Z,25.20
2018-11-20T22:13:03.774Z,23.33
2018-11-20T22:15:42.190Z,25.03
2018-11-20T22:18:45.090Z,23.93
2018-11-20T22:24:26.572Z,24.30
2018-11-20T22:29:45.382Z,24.20
2018-11-20T22:32:47.274Z,25.30
2018-11-20T22:38:06.097Z,23.93
2018-11-20T22:40:47.416Z,25.60
2018-11-20T22:46:28.096Z,24.40
2018-11-20T22:51:46.409Z,25.30
2018-11-20T22:54:26.568Z,25.13
2018-11-20T23:00:07.507Z,27.07
2018-11-20T23:05:45.302Z,27.50
2018-11-20T23:08:24.042Z,27.50
2018-11-20T23:11:03.858Z,27.93
2018-11-20T23:16:22.326Z,30.03
2018-11-20T23:19:02.416Z,28.80
2018-11-20T23:48:22.185Z,27.20
2018-11-20T23:51:01.411Z,26.23
2018-11-20T23:53:40.480Z,27.93
2018-11-20T23:56:19.615Z,28.50
2018-11-20T23:58:58.693Z,27.77
